Aérodrome :







RETROUVEZ-NOUS SUR...

 
LOGIN :

S'inscrire | Disclaimer

   EN    FR    IT 

 









Légende :    VFR   VFR Marginal   IFR   IFR Intensif   IFR Très Intensif
Visi : 
Plafond : 
>= 8 km
>= 3000ft
5 à 8 km
1000 à 3000 ft
1500m à 5 km
500 à 1000 ft
800 à 1500m
200 à 500 ft
< 800m
< 200 ft
Symboles :   Orages  Brouillard  Fortes neiges  Fortes précipitations  Vent > 20 kt






- Altitude de l'aérodrome : 167 ft
- Code IATA : YAW


CYAW - CFB Shearwater

DERNIER METAR :
  • 241800Z 17008KT 10SM FEW015 05/01 A3007 RMK SC1 DA-1164FT SLP184

METARs EXPIRÉS :
  • 241700Z 18007KT 10SM FEW015 04/00 A3008 RMK SC1 DA-1240FT SLP189
  • 241600Z 18008KT 8SM FEW010 FEW012 04/00 A3010 RMK CF1SC2 DA-1338FT CUFRA TR SLP195

TAF TAF CYAW
Valide du 24 à 18h jusqu'au 25 à 06h UTC


241730Z 2418/2506 19008KT P6SM SKC
BECMG 2500/2502 23005KT BKN200 RMK NXT FCST BY 250000Z



MET'MAP, la Météo Aéronautique d'un coup d'oeil ! - Copyright ORBIFLY Décembre 2007 - Disclaimer

ORBIFLY MET'MAP TEAM :

Programmation & Développement : Alexandra Zaïnal
Sur une idée originale de : Baudouin d'Aumeries
Assistance à la programmation : Marc-Olivier Méhu
Soutien technique & logistique : Manuel Goepfert

Contact : metmap@orbifly.com




SOURCES & CREDITS :

   NOAA